Time;durP1;ratioP1;P1;durP2;ratioP2;P2;SDS_P1;SDS_P2;PMS_P1;PMS_P2;Temp;Humidity;BMP_temperature;BMP_pressure;BME280_temperature;BME280_humidity;BME280_pressure;Samples;Min_cycle;Max_cycle;Signal;HPM_P1;HPM_P2
2022/12/01 00:01:39;;;;;;;;;49.00;40.75;;;;;7.80;72.61;101887.25;4881057;29;45352;-56
2022/12/01 00:04:05;;;;;;;;;55.50;39.25;;;;;7.70;73.08;101892.84;4881792;29;45316;-57
2022/12/01 00:06:30;;;;;;;;;51.25;39.00;;;;;7.45;72.93;101845.47;4864798;29;45371;-56
2022/12/01 00:11:40;;;;;;;;;52.80;37.20;;;;;7.77;73.38;101881.25;4867122;29;45390;-58
2022/12/01 00:14:05;;;;;;;;;54.75;43.00;;;;;7.78;73.41;101872.91;4895525;29;45481;-58
2022/12/01 00:16:31;;;;;;;;;53.75;37.75;;;;;7.76;73.27;101866.75;4900227;29;45584;-60
2022/12/01 00:18:57;;;;;;;;;49.00;40.50;;;;;7.82;73.01;101873.44;4900231;29;45493;-58
2022/12/01 00:21:23;;;;;;;;;56.00;43.25;;;;;7.87;72.56;101882.00;4878935;28;45402;-58
2022/12/01 00:23:51;;;;;;;;;49.60;38.40;;;;;7.90;72.20;101869.88;4900600;29;45415;-57
2022/12/01 00:26:17;;;;;;;;;46.40;37.60;;;;;7.86;72.81;101874.81;4883485;29;45635;-57
2022/12/01 00:28:42;;;;;;;;;48.00;39.25;;;;;7.91;72.10;101877.91;4899882;29;46430;-57
2022/12/01 00:31:08;;;;;;;;;47.50;39.00;;;;;7.55;72.81;101838.00;4900199;29;45201;-57
2022/12/01 00:33:34;;;;;;;;;52.20;41.80;;;;;7.54;72.88;101830.84;4882648;29;45310;-58
2022/12/01 00:35:59;;;;;;;;;51.75;40.75;;;;;7.77;72.15;101882.13;4900524;29;45225;-57
2022/12/01 00:38:25;;;;;;;;;56.75;43.50;;;;;7.54;72.38;101860.00;4882331;29;46350;-56
2022/12/01 00:40:51;;;;;;;;;40.25;32.25;;;;;7.46;73.06;101842.56;4899882;29;45429;-57
2022/12/01 00:43:16;;;;;;;;;52.50;43.25;;;;;7.75;72.24;101883.31;4900330;29;45388;-57
2022/12/01 00:45:42;;;;;;;;;38.00;35.00;;;;;7.73;71.79;101875.28;4900219;29;45429;-58
2022/12/01 00:48:08;;;;;;;;;50.50;39.25;;;;;7.54;71.98;101877.28;4867592;29;45732;-58
2022/12/01 00:50:33;;;;;;;;;41.25;36.25;;;;;7.49;72.11;101871.44;4883040;29;46003;-57
2022/12/01 00:52:59;;;;;;;;;49.50;39.50;;;;;7.53;71.40;101885.63;4900196;29;45364;-58
2022/12/01 00:55:24;;;;;;;;;46.75;37.75;;;;;7.32;71.87;101873.25;4900265;29;45547;-58
2022/12/01 00:57:50;;;;;;;;;49.00;40.25;;;;;7.34;72.13;101876.66;4882649;29;45959;-57
2022/12/01 01:00:16;;;;;;;;;36.50;29.25;;;;;7.26;72.09;101863.78;4900171;29;45323;-57
2022/12/01 01:02:41;;;;;;;;;52.80;40.80;;;;;7.36;72.04;101869.16;4899503;29;45214;-57
2022/12/01 01:05:07;;;;;;;;;51.25;41.00;;;;;7.25;72.43;101889.41;4883252;29;45255;-57
2022/12/01 01:07:33;;;;;;;;;54.00;40.00;;;;;7.18;72.54;101883.75;4899394;29;46490;-57
2022/12/01 01:09:58;;;;;;;;;55.25;41.25;;;;;7.19;72.31;101885.44;4899783;29;45330;-57
2022/12/01 01:12:24;;;;;;;;;41.50;34.25;;;;;7.21;72.73;101882.56;4898654;29;45298;-56
2022/12/01 01:14:50;;;;;;;;;56.25;41.50;;;;;7.22;72.11;101877.94;4899616;29;45565;-57
2022/12/01 01:17:15;;;;;;;;;54.40;38.00;;;;;7.13;72.04;101880.63;4899535;29;46721;-57
2022/12/01 01:19:41;;;;;;;;;50.50;40.75;;;;;7.05;72.67;101878.69;4899217;29;45399;-57
2022/12/01 01:22:06;;;;;;;;;58.75;43.00;;;;;6.98;73.26;101876.78;4873282;28;45441;-56
2022/12/01 01:24:31;;;;;;;;;44.75;39.75;;;;;6.82;72.80;101837.44;4899789;29;45450;-55
2022/12/01 01:26:57;;;;;;;;;52.25;40.00;;;;;6.82;72.13;101829.25;4899004;29;46480;-56
2022/12/01 01:29:23;;;;;;;;;53.40;41.40;;;;;7.03;72.42;101875.28;4882293;29;45328;-55
2022/12/01 01:31:48;;;;;;;;;55.25;42.75;;;;;6.99;72.76;101886.69;4881981;29;45444;-56
2022/12/01 01:34:14;;;;;;;;;46.50;40.00;;;;;6.78;72.21;101836.06;4899643;29;45479;-55
2022/12/01 01:36:39;;;;;;;;;52.00;41.50;;;;;7.04;72.19;101887.03;4882151;29;46334;-52
2022/12/01 01:39:05;;;;;;;;;49.75;40.50;;;;;7.08;72.40;101895.75;4898963;29;45505;-55
2022/12/01 01:41:30;;;;;;;;;52.50;41.50;;;;;7.06;72.35;101898.69;4898884;29;45321;-56
2022/12/01 01:43:56;;;;;;;;;54.00;41.50;;;;;7.06;72.27;101895.94;4899022;29;45567;-55
2022/12/01 01:46:26;;;;;;;;;48.00;38.50;;;;;7.03;72.16;101896.25;4898493;29;45529;-55
2022/12/01 01:49:08;;;;;;;;;51.20;38.60;;;;;7.00;72.52;101902.88;4898310;29;45409;-55
2022/12/01 01:51:42;;;;;;;;;55.20;44.00;;;;;7.06;72.05;101915.06;4898782;29;45334;-55
2022/12/01 01:54:16;;;;;;;;;49.80;39.80;;;;;7.03;72.22;101904.44;4898959;29;45398;-57
2022/12/01 01:56:42;;;;;;;;;50.20;40.80;;;;;7.05;72.25;101907.88;4882104;29;46820;-58
2022/12/01 01:59:08;;;;;;;;;54.80;41.40;;;;;7.00;72.44;101902.88;4881594;29;45258;-58
2022/12/01 02:01:33;;;;;;;;;47.50;40.50;;;;;7.00;72.35;101891.97;4898871;29;45454;-58
2022/12/01 02:03:59;;;;;;;;;59.25;47.50;;;;;6.82;71.91;101855.69;4899026;29;45341;-57
2022/12/01 02:06:24;;;;;;;;;55.75;41.25;;;;;7.10;72.20;101899.22;4881103;29;45790;-56
2022/12/01 02:08:50;;;;;;;;;51.50;39.00;;;;;6.97;72.04;101891.44;4881535;29;45819;-55
2022/12/01 02:11:23;;;;;;;;;49.75;41.00;;;;;6.95;72.08;101899.81;4898370;29;45451;-57
2022/12/01 02:14:07;;;;;;;;;53.00;40.80;;;;;6.98;72.51;101882.25;4882223;29;45376;-56
2022/12/01 02:16:39;;;;;;;;;45.60;38.40;;;;;7.08;71.86;101890.31;4898135;29;46796;-58
2022/12/01 02:19:49;;;;;;;;;49.20;40.40;;;;;7.03;71.20;101897.13;4865689;29;45432;-55
2022/12/01 02:22:15;;;;;;;;;42.60;34.80;;;;;7.01;71.24;101892.84;4878783;29;45768;-54
2022/12/01 02:25:04;;;;;;;;;53.75;39.75;;;;;7.00;70.66;101880.22;4860530;28;45589;-55
2022/12/01 02:27:45;;;;;;;;;59.20;42.40;;;;;7.09;70.12;101889.31;4864833;29;46417;-54
2022/12/01 02:30:16;;;;;;;;;50.40;37.40;;;;;7.13;71.05;101887.97;4864166;29;45553;-55
2022/12/01 02:33:00;;;;;;;;;36.80;28.00;;;;;7.00;70.39;101858.38;4846946;29;45354;-56
2022/12/01 02:35:48;;;;;;;;;49.20;41.40;;;;;7.21;70.62;101893.50;4879813;29;45277;-53
2022/12/01 02:38:20;;;;;;;;;50.60;39.00;;;;;7.26;69.83;101890.28;4873443;29;46077;-54
2022/12/01 02:40:50;;;;;;;;;52.60;39.60;;;;;6.78;70.08;101806.88;4879625;29;45350;-56
2022/12/01 02:43:29;;;;;;;;;49.40;39.80;;;;;7.11;70.14;101860.84;4847525;29;45962;-56
2022/12/01 02:46:11;;;;;;;;;55.20;39.60;;;;;7.25;70.79;101878.47;4879569;29;45370;-54
2022/12/01 02:48:38;;;;;;;;;56.40;40.60;;;;;7.26;70.43;101888.38;4879125;29;46669;-55
2022/12/01 02:51:21;;;;;;;;;54.40;40.20;;;;;7.21;71.12;101885.31;4862512;29;45507;-55
2022/12/01 02:53:47;;;;;;;;;51.00;35.60;;;;;7.25;70.99;101888.56;4848205;29;45357;-56
2022/12/01 02:56:14;;;;;;;;;55.00;40.50;;;;;7.25;70.59;101885.84;4862920;29;45789;-57
2022/12/01 02:58:41;;;;;;;;;49.40;41.40;;;;;7.27;70.84;101884.63;4879226;29;46645;-57
2022/12/01 03:01:17;;;;;;;;;49.20;40.00;;;;;7.26;70.85;101882.06;4879396;29;45347;-56
2022/12/01 03:03:56;;;;;;;;;56.40;40.00;;;;;7.11;70.65;101863.56;4879426;29;45849;-57
2022/12/01 03:06:54;;;;;;;;;42.00;36.80;;;;;7.15;70.52;101878.59;4862692;29;45484;-55
2022/12/01 03:09:23;;;;;;;;;50.60;39.40;;;;;7.21;70.82;101873.50;4861804;29;46582;-58
2022/12/01 03:12:04;;;;;;;;;47.20;40.00;;;;;7.12;70.45;101859.81;4878757;29;45285;-58
2022/12/01 03:14:29;;;;;;;;;50.40;40.60;;;;;6.68;70.52;101792.50;4871922;29;45510;-57
2022/12/01 03:16:55;;;;;;;;;58.00;42.50;;;;;7.13;70.37;101869.72;4897739;29;45337;-57
2022/12/01 03:19:32;;;;;;;;;44.50;38.50;;;;;7.06;71.05;101865.91;4881109;29;46281;-57
2022/12/01 03:22:03;;;;;;;;;52.20;39.00;;;;;6.90;70.63;101853.84;4865514;29;45269;-56
2022/12/01 03:24:31;;;;;;;;;48.60;36.20;;;;;6.85;70.92;101849.91;4852682;28;45488;-55
2022/12/01 03:26:57;;;;;;;;;48.40;36.60;;;;;6.91;71.65;101862.91;4865791;29;45392;-58
2022/12/01 03:29:30;;;;;;;;;41.25;33.25;;;;;6.78;71.91;101846.97;4865421;29;46092;-57
2022/12/01 03:31:58;;;;;;;;;47.20;39.60;;;;;6.38;72.15;101789.22;4880680;29;45367;-59
2022/12/01 03:34:48;;;;;;;;;52.20;38.60;;;;;6.08;71.32;101737.69;4898050;29;45350;-59
2022/12/01 03:37:54;;;;;;;;;41.40;36.00;;;;;6.92;72.02;101881.00;4884873;29;45513;-58
2022/12/01 03:40:21;;;;;;;;;59.80;40.40;;;;;6.80;71.93;101850.38;4884165;29;45442;-57
2022/12/01 03:42:50;;;;;;;;;46.80;37.20;;;;;6.84;72.03;101876.31;4883821;29;45406;-57
2022/12/01 03:45:25;;;;;;;;;52.60;40.00;;;;;6.79;71.94;101867.78;4900647;29;45382;-57
2022/12/01 03:47:51;;;;;;;;;57.40;40.40;;;;;6.87;72.35;101897.00;4884223;29;45411;-55
2022/12/01 03:50:17;;;;;;;;;49.00;38.50;;;;;6.84;72.25;101889.13;4883566;29;46027;-56
2022/12/01 03:52:45;;;;;;;;;54.60;41.60;;;;;6.42;72.41;101811.56;4883664;29;45472;-57
2022/12/01 03:55:19;;;;;;;;;55.00;42.20;;;;;6.80;72.72;101894.06;4900843;29;45371;-58
2022/12/01 03:57:53;;;;;;;;;42.40;35.40;;;;;6.58;72.32;101849.91;4883921;29;45394;-59
2022/12/01 04:00:18;;;;;;;;;51.20;41.20;;;;;6.80;72.50;101874.94;4868827;29;45529;-56
2022/12/01 04:02:44;;;;;;;;;49.25;37.75;;;;;6.78;72.76;101868.81;4900532;29;45348;-56
2022/12/01 04:05:10;;;;;;;;;45.00;35.50;;;;;6.56;72.21;101821.91;4900783;29;45375;-56
2022/12/01 04:07:36;;;;;;;;;57.75;40.00;;;;;6.88;71.95;101883.19;4900787;29;45439;-56
2022/12/01 04:10:02;;;;;;;;;57.40;41.00;;;;;6.80;72.16;101864.03;4900449;29;45848;-56
2022/12/01 04:12:32;;;;;;;;;54.25;39.00;;;;;6.77;72.86;101867.06;4900310;29;46117;-56
2022/12/01 04:15:09;;;;;;;;;47.20;35.60;;;;;6.72;73.04;101853.06;4900314;29;45407;-57
2022/12/01 04:17:34;;;;;;;;;57.80;41.00;;;;;6.84;72.46;101859.94;4900720;29;45408;-59
2022/12/01 04:19:59;;;;;;;;;51.25;40.00;;;;;6.59;72.43;101821.59;4900277;29;46469;-59
2022/12/01 04:22:25;;;;;;;;;55.75;42.50;;;;;6.83;72.61;101860.97;4883240;29;45400;-59
2022/12/01 04:24:51;;;;;;;;;49.50;36.25;;;;;6.93;72.84;101876.41;4868207;29;45349;-59
2022/12/01 04:27:17;;;;;;;;;51.00;39.80;;;;;6.92;72.23;101875.53;4876982;28;45746;-59
2022/12/01 04:29:43;;;;;;;;;56.25;42.75;;;;;6.90;72.27;101866.66;4900253;29;45418;-58
2022/12/01 04:32:08;;;;;;;;;55.75;38.75;;;;;6.85;72.68;101867.16;4900099;29;45316;-60
2022/12/01 04:34:33;;;;;;;;;56.00;39.00;;;;;6.83;72.13;101862.88;4900420;29;45379;-57
2022/12/01 04:36:59;;;;;;;;;52.75;41.00;;;;;6.83;72.25;101863.69;4900501;29;45298;-59
2022/12/01 04:39:24;;;;;;;;;52.50;37.25;;;;;6.72;72.25;101856.63;4899519;29;46549;-58
2022/12/01 04:41:50;;;;;;;;;55.50;38.50;;;;;6.89;72.54;101873.97;4899911;29;45395;-59
2022/12/01 04:44:15;;;;;;;;;56.50;42.50;;;;;6.90;71.85;101861.19;4899860;29;45444;-59
2022/12/01 04:46:41;;;;;;;;;47.50;34.75;;;;;6.91;71.88;101869.25;4899798;29;45383;-59
2022/12/01 04:49:06;;;;;;;;;49.50;37.50;;;;;6.87;72.10;101859.66;4900435;29;46235;-61
2022/12/01 04:51:32;;;;;;;;;49.25;40.75;;;;;6.90;71.89;101867.50;4900130;29;45385;-59
2022/12/01 04:53:57;;;;;;;;;51.25;41.00;;;;;6.88;71.97;101868.72;4900096;29;45437;-59
2022/12/01 04:56:23;;;;;;;;;46.00;40.00;;;;;6.76;72.30;101870.81;4900339;29;45377;-57
2022/12/01 04:58:48;;;;;;;;;55.50;40.25;;;;;6.80;72.01;101876.81;4882568;29;46167;-56
2022/12/01 05:01:15;;;;;;;;;45.75;38.00;;;;;6.79;72.12;101875.97;4882868;29;45293;-59
2022/12/01 05:03:42;;;;;;;;;44.40;37.80;;;;;6.59;71.76;101827.06;4900681;29;45315;-57
2022/12/01 05:06:12;;;;;;;;;51.00;42.20;;;;;6.85;71.55;101867.16;4900451;29;45307;-57
2022/12/01 05:08:38;;;;;;;;;54.00;38.60;;;;;6.62;71.68;101834.06;4899454;29;45687;-57
2022/12/01 05:11:06;;;;;;;;;43.50;36.25;;;;;6.88;71.96;101874.16;4899827;29;45340;-57
2022/12/01 05:13:31;;;;;;;;;45.60;37.00;;;;;6.83;71.65;101854.69;4899108;29;45383;-59
2022/12/01 05:16:17;;;;;;;;;52.75;40.00;;;;;6.81;71.74;101868.47;4867001;29;45233;-58
2022/12/01 05:18:45;;;;;;;;;54.40;41.80;;;;;6.80;72.01;101872.22;4881977;29;48596;-58
2022/12/01 05:21:11;;;;;;;;;53.40;39.00;;;;;6.77;71.43;101875.25;4883012;29;45959;-59
2022/12/01 05:23:37;;;;;;;;;46.75;37.00;;;;;6.74;72.08;101868.22;4882413;29;45384;-60
2022/12/01 05:26:04;;;;;;;;;45.00;37.60;;;;;6.59;71.51;101840.69;4899833;29;45864;-59
2022/12/01 05:28:29;;;;;;;;;47.80;40.20;;;;;6.77;71.64;101870.66;4855642;28;46764;-59
2022/12/01 05:30:55;;;;;;;;;59.75;41.25;;;;;6.47;71.29;101820.13;4880291;29;45363;-59
2022/12/01 05:33:21;;;;;;;;;51.00;36.75;;;;;6.52;71.50;101831.44;4863395;29;45729;-59
2022/12/01 05:35:47;;;;;;;;;37.40;31.60;;;;;6.66;71.44;101862.72;4880695;29;45186;-59
2022/12/01 05:38:12;;;;;;;;;53.00;39.60;;;;;6.73;71.55;101868.41;4879996;29;45490;-59
2022/12/01 05:40:38;;;;;;;;;55.00;41.25;;;;;6.67;71.18;101874.50;4880679;29;45237;-59
2022/12/01 05:43:04;;;;;;;;;54.75;39.25;;;;;6.51;72.17;101857.84;4880344;29;45208;-58
2022/12/01 05:45:29;;;;;;;;;46.25;34.75;;;;;6.67;71.74;101875.34;4880619;29;45194;-59
2022/12/01 05:47:55;;;;;;;;;43.50;34.75;;;;;6.48;71.65;101852.72;4879755;29;46155;-59
2022/12/01 05:50:22;;;;;;;;;43.40;37.20;;;;;6.53;71.10;101851.38;4880238;29;45967;-58
2022/12/01 05:52:47;;;;;;;;;51.60;40.40;;;;;6.64;71.34;101864.75;4862996;29;45407;-60
2022/12/01 05:55:13;;;;;;;;;48.50;37.50;;;;;6.62;71.36;101869.53;4880495;29;45635;-63
2022/12/01 05:57:38;;;;;;;;;48.50;36.75;;;;;6.56;71.15;101881.91;4863094;29;46350;-59
2022/12/01 06:00:05;;;;;;;;;49.50;36.75;;;;;6.53;71.22;101892.28;4879727;29;45513;-58
2022/12/01 06:02:30;;;;;;;;;45.60;40.40;;;;;6.31;71.57;101856.28;4880066;29;45393;-59
2022/12/01 06:04:56;;;;;;;;;55.00;39.50;;;;;6.36;71.56;101865.72;4880194;29;45563;-58
2022/12/01 06:07:24;;;;;;;;;46.25;38.25;;;;;6.42;70.93;101877.00;4879804;29;46387;-57
2022/12/01 06:09:49;;;;;;;;;44.80;35.20;;;;;6.29;71.69;101864.63;4879793;29;45344;-59
2022/12/01 06:12:15;;;;;;;;;47.00;37.00;;;;;6.31;71.72;101864.47;4879716;29;45397;-57
2022/12/01 06:14:40;;;;;;;;;50.75;38.00;;;;;6.42;71.10;101877.00;4851814;29;45370;-56
2022/12/01 06:17:06;;;;;;;;;47.50;39.25;;;;;6.47;70.93;101875.53;4881604;29;46063;-56
2022/12/01 06:19:31;;;;;;;;;48.50;36.75;;;;;6.50;71.05;101874.34;4881513;29;45472;-58
2022/12/01 06:21:57;;;;;;;;;47.75;38.00;;;;;6.44;71.05;101878.56;4898635;29;45440;-56
2022/12/01 06:24:22;;;;;;;;;52.00;38.25;;;;;6.15;71.55;101830.59;4881635;29;45454;-56
2022/12/01 06:26:48;;;;;;;;;48.25;39.00;;;;;6.07;71.37;101834.09;4898541;29;45661;-57
2022/12/01 06:29:13;;;;;;;;;53.25;36.25;;;;;6.33;71.77;101889.72;4881188;29;45463;-58
2022/12/01 06:31:38;;;;;;;;;49.00;40.00;;;;;6.40;71.34;101887.22;4872196;28;45537;-55
2022/12/01 06:34:04;;;;;;;;;46.25;38.75;;;;;6.48;70.77;101885.44;4881628;29;45348;-55
2022/12/01 06:36:29;;;;;;;;;51.25;38.25;;;;;6.54;71.44;101880.34;4898613;29;45397;-57
2022/12/01 06:38:55;;;;;;;;;47.25;36.25;;;;;6.58;70.15;101882.63;4897932;29;45388;-57
2022/12/01 06:41:20;;;;;;;;;50.50;40.50;;;;;6.55;71.27;101882.94;4881154;29;45374;-57
2022/12/01 06:43:46;;;;;;;;;50.75;38.50;;;;;6.55;70.42;101880.19;4898616;29;45494;-58
2022/12/01 06:46:11;;;;;;;;;52.50;41.00;;;;;6.56;70.36;101881.06;4880818;29;46132;-57
2022/12/01 06:48:37;;;;;;;;;51.50;39.50;;;;;6.56;70.58;101883.81;4898362;29;45677;-58
2022/12/01 06:51:02;;;;;;;;;43.50;35.25;;;;;6.61;70.17;101884.16;4898155;29;45350;-58
2022/12/01 06:53:28;;;;;;;;;53.75;40.25;;;;;6.58;70.06;101889.94;4898200;29;45327;-58
2022/12/01 06:56:00;;;;;;;;;44.75;38.00;;;;;6.21;70.40;101840.03;4898003;29;45798;-59
2022/12/01 06:58:26;;;;;;;;;48.80;39.20;;;;;6.46;71.23;101890.19;4881822;29;45356;-59
2022/12/01 07:00:51;;;;;;;;;42.50;37.00;;;;;6.56;70.49;101898.28;4898493;29;45240;-58
2022/12/01 07:03:16;;;;;;;;;49.75;40.50;;;;;6.58;70.46;101893.53;4898038;29;45516;-58
2022/12/01 07:05:42;;;;;;;;;50.75;38.50;;;;;6.58;70.30;101888.09;4898240;29;45809;-59
2022/12/01 07:08:07;;;;;;;;;44.25;37.50;;;;;6.54;70.49;101896.72;4898107;29;45555;-57
2022/12/01 07:10:33;;;;;;;;;43.50;39.25;;;;;6.64;70.57;101913.88;4898898;29;45319;-58
2022/12/01 07:12:58;;;;;;;;;39.75;32.00;;;;;6.67;70.34;101907.25;4901565;29;45492;-58
2022/12/01 07:15:27;;;;;;;;;49.75;38.00;;;;;6.60;70.64;101905.16;4900891;29;45554;-58
2022/12/01 07:17:53;;;;;;;;;50.40;41.40;;;;;6.60;70.45;101904.28;4901148;29;45411;-57
2022/12/01 07:20:18;;;;;;;;;40.75;38.00;;;;;6.72;70.57;101926.75;4901277;29;45401;-57
2022/12/01 07:22:43;;;;;;;;;45.00;37.50;;;;;6.70;70.25;101918.69;4901627;29;45588;-59
2022/12/01 07:25:09;;;;;;;;;54.00;42.25;;;;;6.68;70.48;101925.31;4901515;29;45972;-57
2022/12/01 07:27:34;;;;;;;;;54.00;42.00;;;;;6.49;70.13;101897.19;4900869;29;45475;-58
2022/12/01 07:30:00;;;;;;;;;55.25;41.00;;;;;6.67;70.17;101929.91;4901414;29;45231;-59
2022/12/01 07:32:25;;;;;;;;;48.00;36.50;;;;;6.72;70.00;101932.19;4845414;28;45661;-61
2022/12/01 07:34:51;;;;;;;;;41.25;36.75;;;;;6.73;70.11;101928.44;4881915;29;46405;-58
2022/12/01 07:37:16;;;;;;;;;45.25;38.00;;;;;6.79;69.92;101938.75;4864999;29;45366;-59
2022/12/01 07:39:42;;;;;;;;;54.00;39.00;;;;;6.79;70.25;101941.47;4881820;29;45851;-58
2022/12/01 07:42:07;;;;;;;;;47.00;40.25;;;;;6.78;69.39;101940.59;4882452;29;45359;-59
2022/12/01 07:44:33;;;;;;;;;55.50;42.50;;;;;6.73;69.81;101948.38;4864500;29;45990;-59
2022/12/01 07:46:58;;;;;;;;;58.50;39.75;;;;;6.64;70.07;101952.94;4881959;29;45256;-59
2022/12/01 07:49:24;;;;;;;;;45.00;37.25;;;;;6.51;70.52;101966.94;4881877;29;45456;-59
2022/12/01 07:51:49;;;;;;;;;49.50;39.50;;;;;6.37;69.98;101953.84;4865294;29;45659;-61
2022/12/01 07:54:16;;;;;;;;;45.25;38.25;;;;;6.22;70.41;101929.84;4881667;29;47614;-55
2022/12/01 07:56:41;;;;;;;;;51.20;34.20;;;;;6.40;70.80;101966.31;4881622;29;45410;-55
2022/12/01 07:59:07;;;;;;;;;36.00;32.00;;;;;6.43;70.89;101966.00;4882027;29;45695;-55
2022/12/01 08:01:32;;;;;;;;;43.25;37.25;;;;;6.26;70.62;101933.13;4881943;29;45569;-57
2022/12/01 08:03:58;;;;;;;;;51.50;36.75;;;;;6.50;70.17;101969.81;4864311;29;45796;-55
2022/12/01 08:06:24;;;;;;;;;42.50;39.00;;;;;6.59;70.24;101981.69;4864768;29;45441;-55
2022/12/01 08:08:50;;;;;;;;;45.25;36.00;;;;;6.61;70.41;101968.72;4845392;28;45493;-55
2022/12/01 08:11:25;;;;;;;;;57.25;38.50;;;;;6.60;70.30;101965.16;4900327;29;45561;-53
2022/12/01 08:13:51;;;;;;;;;40.00;35.00;;;;;6.20;69.66;101914.66;4882299;29;46065;-55
2022/12/01 08:16:18;;;;;;;;;50.20;38.60;;;;;6.64;69.85;101974.78;4900384;29;45297;-56
2022/12/01 08:18:44;;;;;;;;;48.80;37.00;;;;;6.42;69.49;101954.25;4900418;29;45217;-57
2022/12/01 08:21:11;;;;;;;;;41.50;36.50;;;;;6.53;69.90;101988.63;4900422;29;45213;-57
2022/12/01 08:23:36;;;;;;;;;48.60;37.60;;;;;6.21;69.99;101944.50;4900084;29;46792;-56
2022/12/01 08:26:03;;;;;;;;;38.75;34.50;;;;;6.42;70.67;101999.75;4900407;29;45575;-54
2022/12/01 08:28:29;;;;;;;;;48.80;37.60;;;;;6.41;70.30;101989.84;4881450;29;45501;-58
2022/12/01 08:30:54;;;;;;;;;37.25;34.75;;;;;6.37;70.51;101983.84;4849134;28;45751;-55
2022/12/01 08:33:20;;;;;;;;;42.50;35.00;;;;;6.42;70.63;101992.44;4870645;29;45978;-57
2022/12/01 08:35:45;;;;;;;;;38.25;30.50;;;;;5.69;70.62;101883.22;4841157;29;45494;-57
2022/12/01 08:38:11;;;;;;;;;40.00;35.50;;;;;6.48;71.13;101993.69;4857909;29;45521;-55
2022/12/01 08:40:36;;;;;;;;;47.00;35.50;;;;;6.50;70.81;101989.78;4858870;29;45797;-57
2022/12/01 08:43:02;;;;;;;;;42.75;35.00;;;;;6.24;70.61;101938.72;4860003;29;45999;-60
2022/12/01 08:45:28;;;;;;;;;42.75;34.25;;;;;6.14;70.77;101923.44;4854245;29;45406;-66
2022/12/01 08:47:57;;;;;;;;;47.25;38.50;;;;;6.19;70.26;101927.41;4892349;29;45752;-61
2022/12/01 08:50:25;;;;;;;;;36.40;29.60;;;;;6.61;70.37;101990.56;4869768;29;45461;-64
2022/12/01 08:52:50;;;;;;;;;45.80;35.40;;;;;6.23;70.26;101922.50;4875160;29;45601;-60
2022/12/01 08:55:16;;;;;;;;;42.25;34.50;;;;;6.41;70.02;101981.66;4874893;29;45949;-59
2022/12/01 08:57:41;;;;;;;;;48.75;36.00;;;;;6.47;70.58;102001.00;4891640;29;45479;-54
2022/12/01 09:00:07;;;;;;;;;41.00;35.50;;;;;6.51;70.83;101994.22;4864580;29;45717;-59
2022/12/01 09:02:33;;;;;;;;;37.60;31.00;;;;;6.55;70.61;101994.78;4857525;29;47115;-60
2022/12/01 09:04:58;;;;;;;;;47.75;37.25;;;;;6.55;70.29;101986.59;4864730;29;45520;-60
2022/12/01 09:07:23;;;;;;;;;43.25;35.00;;;;;6.34;69.69;101941.38;4884935;29;45869;-60
2022/12/01 09:09:49;;;;;;;;;45.50;37.00;;;;;6.67;70.08;101994.56;4876025;29;46072;-60
2022/12/01 09:12:15;;;;;;;;;41.00;30.50;;;;;6.60;70.49;101978.81;4875927;29;45529;-60
2022/12/01 09:14:44;;;;;;;;;35.00;29.25;;;;;6.61;69.56;101988.69;4858803;29;45433;-61
2022/12/01 09:17:10;;;;;;;;;41.00;34.20;;;;;6.59;69.65;101982.56;4892801;29;45456;-57
2022/12/01 09:19:35;;;;;;;;;46.50;36.75;;;;;6.62;70.16;101993.13;4889399;29;45477;-54
2022/12/01 09:22:01;;;;;;;;;50.00;40.25;;;;;6.54;69.95;101981.28;4894708;29;45491;-57
2022/12/01 09:24:27;;;;;;;;;40.00;30.00;;;;;6.72;69.99;102000.41;4877675;29;45893;-63
2022/12/01 09:26:56;;;;;;;;;25.50;24.00;;;;;6.50;70.29;101969.81;4894660;29;45466;-61
2022/12/01 09:29:21;;;;;;;;;40.40;36.40;;;;;6.71;69.71;101996.81;4894614;29;45720;-58
2022/12/01 09:31:47;;;;;;;;;48.00;34.50;;;;;6.61;69.81;101976.91;4866708;28;46602;-59
2022/12/01 09:34:14;;;;;;;;;37.25;31.00;;;;;6.68;69.59;101988.09;4874490;29;45580;-58
2022/12/01 09:36:40;;;;;;;;;31.40;30.40;;;;;6.63;69.80;101975.75;4858805;29;45515;-58
2022/12/01 09:39:06;;;;;;;;;37.75;35.00;;;;;6.80;69.39;101992.28;4858174;29;45763;-62
2022/12/01 09:41:36;;;;;;;;;36.20;29.80;;;;;6.78;69.27;101984.25;4875269;29;46586;-59
2022/12/01 09:44:23;;;;;;;;;36.20;29.20;;;;;6.89;69.34;101998.69;4878348;29;45514;-60
2022/12/01 09:46:51;;;;;;;;;39.00;29.40;;;;;6.72;68.88;101993.06;4875572;29;45426;-60
2022/12/01 09:49:35;;;;;;;;;42.20;34.20;;;;;6.83;69.71;102000.16;4875109;29;45409;-62
2022/12/01 09:52:00;;;;;;;;;42.20;32.60;;;;;6.89;68.89;102001.44;4875006;29;46567;-60
2022/12/01 09:54:26;;;;;;;;;31.75;28.25;;;;;6.90;69.00;101989.50;4870067;29;45808;-61
2022/12/01 09:56:52;;;;;;;;;43.75;28.75;;;;;6.93;68.28;101997.34;4846312;29;45478;-61
2022/12/01 09:59:31;;;;;;;;;36.60;29.00;;;;;6.87;68.75;101982.47;4842670;29;45600;-61
2022/12/01 10:01:59;;;;;;;;;33.80;25.80;;;;;6.85;68.24;101959.06;4827446;29;46512;-63
2022/12/01 10:04:30;;;;;;;;;35.60;27.80;;;;;7.02;68.61;102004.63;4875101;29;45566;-60
2022/12/01 10:07:00;;;;;;;;;41.00;29.80;;;;;7.01;68.01;101997.44;4875259;29;45499;-59
2022/12/01 10:09:37;;;;;;;;;33.80;31.40;;;;;6.99;68.23;101998.59;4888026;29;45553;-60
2022/12/01 10:12:17;;;;;;;;;43.80;31.40;;;;;6.95;68.32;101991.75;4894182;29;45850;-62
2022/12/01 10:14:47;;;;;;;;;37.60;31.20;;;;;6.96;68.47;101971.59;4893452;29;45423;-62
2022/12/01 10:17:37;;;;;;;;;38.00;34.40;;;;;7.06;68.42;101977.84;4893817;29;45439;-61
2022/12/01 10:20:14;;;;;;;;;33.80;28.80;;;;;7.17;68.13;101984.94;4888436;29;45609;-61
2022/12/01 10:22:44;;;;;;;;;39.40;30.60;;;;;7.11;68.39;101983.69;4876666;29;46475;-59
2022/12/01 10:25:21;;;;;;;;;32.40;29.00;;;;;6.90;67.73;101954.00;4876690;29;45466;-61
2022/12/01 10:27:52;;;;;;;;;30.20;25.00;;;;;6.88;68.16;101937.78;4876834;29;45477;-62
2022/12/01 10:30:19;;;;;;;;;42.40;32.20;;;;;6.94;68.30;101935.44;4874600;29;45513;-61
2022/12/01 10:32:52;;;;;;;;;33.60;27.60;;;;;7.29;67.17;101977.31;4836356;28;45417;-59
2022/12/01 10:35:19;;;;;;;;;40.60;30.40;;;;;7.25;67.89;101954.09;4878855;29;45530;-59
2022/12/01 10:37:46;;;;;;;;;35.60;30.40;;;;;7.43;67.34;101981.34;4861151;29;45432;-61
2022/12/01 10:40:13;;;;;;;;;42.80;28.40;;;;;7.17;67.16;101913.94;4879428;29;45605;-58
2022/12/01 10:42:44;;;;;;;;;33.80;26.20;;;;;7.46;66.68;101970.97;4846734;29;46469;-57
2022/12/01 10:45:15;;;;;;;;;33.00;28.80;;;;;6.93;66.70;101892.78;4864098;29;45376;-59
2022/12/01 10:48:05;;;;;;;;;30.40;27.60;;;;;7.50;67.11;101965.16;4882759;29;45410;-57
2022/12/01 10:50:33;;;;;;;;;42.20;28.80;;;;;7.59;66.90;101964.22;4882281;29;45447;-56
2022/12/01 10:52:58;;;;;;;;;28.00;21.40;;;;;7.66;66.53;101958.94;4882195;29;47011;-57
2022/12/01 10:55:30;;;;;;;;;31.75;29.50;;;;;7.37;66.63;101917.28;4877901;29;45547;-58
2022/12/01 10:57:56;;;;;;;;;40.00;26.40;;;;;7.45;66.24;101941.94;4860150;29;45573;-57
2022/12/01 11:00:23;;;;;;;;;29.00;24.20;;;;;7.55;66.89;101958.22;4855201;29;45937;-56
2022/12/01 11:02:49;;;;;;;;;39.20;32.00;;;;;7.37;66.78;101944.59;4847738;29;46886;-57
2022/12/01 11:05:31;;;;;;;;;40.80;34.80;;;;;7.30;66.70;101947.13;4880972;29;45338;-58
2022/12/01 11:07:57;;;;;;;;;38.20;29.60;;;;;7.38;66.96;101950.94;4865373;29;45524;-55
2022/12/01 11:10:32;;;;;;;;;30.00;30.00;;;;;7.43;67.21;101937.66;4863901;29;45674;-54
2022/12/01 11:13:05;;;;;;;;;31.80;24.00;;;;;7.51;66.89;101947.75;4864307;29;45457;-59
2022/12/01 11:15:39;;;;;;;;;33.40;29.80;;;;;7.58;66.63;101960.63;4850777;29;45357;-56
2022/12/01 11:18:18;;;;;;;;;27.20;26.00;;;;;7.61;66.75;101948.50;4867416;29;45353;-58
2022/12/01 11:20:43;;;;;;;;;35.60;26.40;;;;;7.59;66.71;101956.84;4883613;29;45790;-57
2022/12/01 11:23:25;;;;;;;;;35.75;30.25;;;;;7.63;66.39;101957.38;4898839;29;46313;-56
2022/12/01 11:26:10;;;;;;;;;37.20;27.40;;;;;7.59;65.99;101945.09;4883791;29;45394;-59